Vetal, South Dakota
Current Conditions -  °F | °C
As of 2:52 AM on Saturday 29 Nov 2014 (Local Time) from KIEN Reporting Station
Clear Clear  
Wind Chill: 50°   Ceiling: Unl
Heat Index: 50°   Visibility: 10mi
Dew Point: 20°   Wind: 9mph
Humidity: 31%   Direction: 230°SW
Pressure: 29.53"   Gusts: NA
Location:  43.2013°N, 101.679°W
Report Text: KIEN 290952Z AUTO 23008KT 10SM CLR 10/M07 A2953 RMK AO2 SLP983 T01001067
Loading
Personal Weather Stations






























Interactive Weather Map New forecast layout! Learn more

10-Day Weather Forecast

Advertisements
Track Severe Weather on mobile